LFMOLFMN

Guest
Details From LFMO - Caritat Ab
To LFMN - Nice Cote D Azur
Flight Number -
Tags Generated
Created
Modified
Stats Distance 106 nm / 196 km
Max Altitude 0 ft / 0 m
Waypoints 2
Social Downloads 1
Likes 0
Share VATSIM

Download

Looking for another format? Having issues loading an existing format? Contact us
Advertisement - Login to hide

Notes

Generated

Route

LFMO LFMN

ID Type Via Altitude Latitude Longitude Leg Dist Tot Dist Heading (true) Name
O LFMO APT - 0 ft / 0 m 44.14905˚ 4.85961˚ - 0 nm - -
O LFMN APT - 0 ft / 0 m 43.64661˚ 7.20258˚ 105 nm 105 nm 106° / 107° -

Altitude Profile

Advertisement - Login to hide

LFMO

Details ICAO LFMO
Name Caritat AB
Region France
Timezone Europe/Paris (UTC+1.0)
Stats Elevation 197 ft / 60 m (AMSL)
Location 44.140162° 4.868512°
Runways 2
Magnetic Variation 1.462° E

METAR

LFMO 180330Z AUTO 33008KT 300V360 CAVOK 03/M01 Q1027 NOSIG

Decode

TAF

TAF LFMO 180200Z 1803/1903 35012KT CAVOK TEMPO 1808/1815 VRB02KT 4000 RA SCT005 BKN030 BECMG 1816/1818 35015G25KT SCT030 TEMPO 1818/1821 35020G35KT

Decode

Departure Runways

ID Width Length Bearing (true) Bearing (mag) Surface Threshold Offset Overrun Length
14 197 ft / 60 m 7,952 ft / 2,424 m 144.26° 142.80° Concrete 0 ft / 0 m 899 ft / 274 m
15 197 ft / 60 m 7,897 ft / 2,407 m 144.26° 142.80° Concrete 0 ft / 0 m 983 ft / 300 m
32 197 ft / 60 m 7,952 ft / 2,424 m 324.27° 322.81° Concrete 0 ft / 0 m 984 ft / 300 m
33 197 ft / 60 m 7,897 ft / 2,407 m 324.27° 322.81° Concrete 0 ft / 0 m 983 ft / 300 m

LFMN

Details ICAO LFMN (NCE)
Name Nice/Cote d'Azur
Region France
Timezone Unknown (UTC+0.0)
Stats Elevation 12 ft / 4 m (AMSL)
Location 43.657981° 7.215362°
Runways 2
Magnetic Variation 2.017° E

METAR

LFMN 180330Z 33013KT CAVOK 04/M08 Q1023 NOSIG

Decode

TAF

TAF TAF LFMN 180200Z 1803/1909 33010KT CAVOK BECMG 1810/1812 09015KT TEMPO 1812/1821 BKN090 BECMG 1821/1823 34010KT

Decode

Destination Runways

ID Width Length Bearing (true) Bearing (mag) Surface Threshold Offset Overrun Length
04L 148 ft / 45 m 8,427 ft / 2,569 m 44.85° 42.83° Asphalt 0 ft / 0 m 131 ft / 40 m
04R 148 ft / 45 m 9,720 ft / 2,963 m 44.60° 42.58° Asphalt 0 ft / 0 m 427 ft / 130 m
22L 148 ft / 45 m 9,720 ft / 2,963 m 224.62° 222.60° Asphalt 0 ft / 0 m 525 ft / 160 m
22R 148 ft / 45 m 8,427 ft / 2,569 m 224.87° 222.85° Asphalt 0 ft / 0 m 492 ft / 150 m

Approach Navaids

Runway Type Ident Frequency Range Bearing (true) Bearing (mag) Slope Elevation
04L Localiser NI 109.95 MHz 27 nm / 50 km 44.90° 42.88° - 12 ft / 4 m (AMSL)
04L Glidescope NI 109.95 MHz 27 nm / 50 km 44.90° 42.88° 3.00° 12 ft / 4 m (AMSL)
04L DME NI 109.95 MHz 27 nm / 50 km - - - 12 ft / 4 m (AMSL)
04R Localiser NA 110.70 MHz 27 nm / 50 km 42.00° 39.98° - 12 ft / 4 m (AMSL)
04R Glidescope NA 110.70 MHz 27 nm / 50 km 42.00° 39.98° 3.00° 12 ft / 4 m (AMSL)
04R DME NA 110.70 MHz 27 nm / 50 km - - - 12 ft / 4 m (AMSL)

Popular Alternatives